Terminal Aerodrome Forecast
Issued by NWS

Home | Current Version | Previous Version | Text Only | Print | Product List | Glossary On
Versions: 1 2 3 4 5 6 7 8 9 10 11 12 13
000
FTUS44 KBMX 141737
TAFTOI
TAF
KTOI 141737Z 1418/1518 25006KT P6SM BKN250
     FM150000 00000KT P6SM BKN250
     FM151300 33007KT P6SM BKN200=

USA.gov is the U.S. government's official web portal to all federal, state and local government web resources and services.